sensor_id;sensor_type;location;lat;lon;timestamp;P1;durP1;ratioP1;P2;durP2;ratioP2
39016;SDS011;24784;45.582;5.276;2023-07-30T00:01:44;8.45;;;4.68;;
39016;SDS011;24784;45.582;5.276;2023-07-30T00:04:10;9.43;;;4.57;;
39016;SDS011;24784;45.582;5.276;2023-07-30T00:06:35;6.07;;;4.38;;
39016;SDS011;24784;45.582;5.276;2023-07-30T00:09:01;6.22;;;4.78;;
39016;SDS011;24784;45.582;5.276;2023-07-30T00:11:27;8.45;;;4.57;;
39016;SDS011;24784;45.582;5.276;2023-07-30T00:13:53;7.45;;;4.75;;
39016;SDS011;24784;45.582;5.276;2023-07-30T00:16:19;6.70;;;4.15;;
39016;SDS011;24784;45.582;5.276;2023-07-30T00:18:44;7.13;;;4.28;;
39016;SDS011;24784;45.582;5.276;2023-07-30T00:21:10;6.10;;;4.25;;
39016;SDS011;24784;45.582;5.276;2023-07-30T00:23:36;9.50;;;4.55;;
39016;SDS011;24784;45.582;5.276;2023-07-30T00:26:02;5.80;;;4.28;;
39016;SDS011;24784;45.582;5.276;2023-07-30T00:28:27;7.97;;;5.15;;
39016;SDS011;24784;45.582;5.276;2023-07-30T00:30:53;5.78;;;4.82;;
39016;SDS011;24784;45.582;5.276;2023-07-30T00:33:19;7.97;;;4.63;;
39016;SDS011;24784;45.582;5.276;2023-07-30T00:35:44;9.40;;;5.18;;
39016;SDS011;24784;45.582;5.276;2023-07-30T00:38:10;6.03;;;4.75;;
39016;SDS011;24784;45.582;5.276;2023-07-30T00:40:39;8.20;;;4.93;;
39016;SDS011;24784;45.582;5.276;2023-07-30T00:43:06;10.45;;;5.47;;
39016;SDS011;24784;45.582;5.276;2023-07-30T00:45:32;11.65;;;5.78;;
39016;SDS011;24784;45.582;5.276;2023-07-30T00:47:58;9.30;;;4.80;;
39016;SDS011;24784;45.582;5.276;2023-07-30T00:50:24;9.05;;;5.00;;
39016;SDS011;24784;45.582;5.276;2023-07-30T00:52:50;7.90;;;5.13;;
39016;SDS011;24784;45.582;5.276;2023-07-30T00:55:15;12.23;;;5.85;;
39016;SDS011;24784;45.582;5.276;2023-07-30T00:57:41;9.68;;;5.47;;
39016;SDS011;24784;45.582;5.276;2023-07-30T01:00:08;6.28;;;5.15;;
39016;SDS011;24784;45.582;5.276;2023-07-30T01:02:37;7.03;;;4.90;;
39016;SDS011;24784;45.582;5.276;2023-07-30T01:05:03;7.38;;;5.55;;
39016;SDS011;24784;45.582;5.276;2023-07-30T01:07:30;10.35;;;5.07;;
39016;SDS011;24784;45.582;5.276;2023-07-30T01:09:57;8.40;;;5.40;;
39016;SDS011;24784;45.582;5.276;2023-07-30T01:12:24;11.75;;;5.53;;
39016;SDS011;24784;45.582;5.276;2023-07-30T01:14:51;9.57;;;5.10;;
39016;SDS011;24784;45.582;5.276;2023-07-30T01:17:17;8.35;;;5.65;;
39016;SDS011;24784;45.582;5.276;2023-07-30T01:19:43;8.35;;;5.32;;
39016;SDS011;24784;45.582;5.276;2023-07-30T01:22:09;19.58;;;5.28;;
39016;SDS011;24784;45.582;5.276;2023-07-30T01:24:35;10.50;;;4.88;;
39016;SDS011;24784;45.582;5.276;2023-07-30T01:27:05;8.27;;;5.30;;
39016;SDS011;24784;45.582;5.276;2023-07-30T01:29:40;7.35;;;5.55;;
39016;SDS011;24784;45.582;5.276;2023-07-30T01:32:11;14.65;;;5.15;;
39016;SDS011;24784;45.582;5.276;2023-07-30T01:34:39;9.63;;;5.38;;
39016;SDS011;24784;45.582;5.276;2023-07-30T01:37:07;11.07;;;5.40;;
39016;SDS011;24784;45.582;5.276;2023-07-30T01:39:35;7.20;;;5.25;;
39016;SDS011;24784;45.582;5.276;2023-07-30T01:42:03;8.45;;;5.72;;
39016;SDS011;24784;45.582;5.276;2023-07-30T01:44:29;7.90;;;5.43;;
39016;SDS011;24784;45.582;5.276;2023-07-30T01:46:56;8.80;;;4.82;;
39016;SDS011;24784;45.582;5.276;2023-07-30T01:49:21;6.75;;;5.00;;
39016;SDS011;24784;45.582;5.276;2023-07-30T01:51:47;11.27;;;5.15;;
39016;SDS011;24784;45.582;5.276;2023-07-30T01:54:13;9.45;;;5.13;;
39016;SDS011;24784;45.582;5.276;2023-07-30T01:56:39;6.20;;;4.90;;
39016;SDS011;24784;45.582;5.276;2023-07-30T01:59:05;7.85;;;5.43;;
39016;SDS011;24784;45.582;5.276;2023-07-30T02:01:31;11.07;;;6.05;;
39016;SDS011;24784;45.582;5.276;2023-07-30T02:03:56;6.97;;;5.25;;
39016;SDS011;24784;45.582;5.276;2023-07-30T02:06:22;7.82;;;5.05;;
39016;SDS011;24784;45.582;5.276;2023-07-30T02:08:48;9.18;;;5.68;;
39016;SDS011;24784;45.582;5.276;2023-07-30T02:11:14;11.30;;;5.50;;
39016;SDS011;24784;45.582;5.276;2023-07-30T02:13:39;8.60;;;5.22;;
39016;SDS011;24784;45.582;5.276;2023-07-30T02:16:06;9.27;;;5.70;;
39016;SDS011;24784;45.582;5.276;2023-07-30T02:18:31;11.40;;;5.40;;
39016;SDS011;24784;45.582;5.276;2023-07-30T02:20:58;11.55;;;5.53;;
39016;SDS011;24784;45.582;5.276;2023-07-30T02:23:24;8.80;;;5.32;;
39016;SDS011;24784;45.582;5.276;2023-07-30T02:25:49;7.88;;;5.35;;
39016;SDS011;24784;45.582;5.276;2023-07-30T02:28:15;9.02;;;5.50;;
39016;SDS011;24784;45.582;5.276;2023-07-30T02:30:41;7.60;;;5.63;;
39016;SDS011;24784;45.582;5.276;2023-07-30T02:33:07;6.90;;;5.25;;
39016;SDS011;24784;45.582;5.276;2023-07-30T02:35:33;6.60;;;4.88;;
39016;SDS011;24784;45.582;5.276;2023-07-30T02:37:58;8.88;;;5.13;;
39016;SDS011;24784;45.582;5.276;2023-07-30T02:40:24;8.02;;;4.93;;
39016;SDS011;24784;45.582;5.276;2023-07-30T02:42:50;9.48;;;5.30;;
39016;SDS011;24784;45.582;5.276;2023-07-30T02:45:15;9.52;;;5.18;;
39016;SDS011;24784;45.582;5.276;2023-07-30T02:47:43;9.30;;;4.82;;
39016;SDS011;24784;45.582;5.276;2023-07-30T02:50:09;5.93;;;5.10;;
39016;SDS011;24784;45.582;5.276;2023-07-30T02:52:35;9.40;;;5.47;;
39016;SDS011;24784;45.582;5.276;2023-07-30T02:55:00;6.32;;;4.93;;
39016;SDS011;24784;45.582;5.276;2023-07-30T02:57:26;10.05;;;5.55;;
39016;SDS011;24784;45.582;5.276;2023-07-30T02:59:52;7.88;;;5.68;;
39016;SDS011;24784;45.582;5.276;2023-07-30T03:02:17;7.47;;;4.97;;
39016;SDS011;24784;45.582;5.276;2023-07-30T03:04:43;9.77;;;5.07;;
39016;SDS011;24784;45.582;5.276;2023-07-30T03:07:09;5.30;;;4.80;;
39016;SDS011;24784;45.582;5.276;2023-07-30T03:09:34;11.10;;;5.15;;
39016;SDS011;24784;45.582;5.276;2023-07-30T03:12:00;7.78;;;5.78;;
39016;SDS011;24784;45.582;5.276;2023-07-30T03:14:26;6.68;;;5.20;;
39016;SDS011;24784;45.582;5.276;2023-07-30T03:16:52;8.27;;;5.15;;
39016;SDS011;24784;45.582;5.276;2023-07-30T03:19:18;7.80;;;5.70;;
39016;SDS011;24784;45.582;5.276;2023-07-30T03:21:44;11.15;;;5.15;;
39016;SDS011;24784;45.582;5.276;2023-07-30T03:24:09;6.75;;;5.50;;
39016;SDS011;24784;45.582;5.276;2023-07-30T03:26:35;10.20;;;5.30;;
39016;SDS011;24784;45.582;5.276;2023-07-30T03:29:01;7.78;;;5.50;;
39016;SDS011;24784;45.582;5.276;2023-07-30T03:31:26;6.47;;;4.93;;
39016;SDS011;24784;45.582;5.276;2023-07-30T03:33:53;7.00;;;4.65;;
39016;SDS011;24784;45.582;5.276;2023-07-30T03:36:19;6.50;;;5.25;;
39016;SDS011;24784;45.582;5.276;2023-07-30T03:38:45;9.38;;;5.70;;
39016;SDS011;24784;45.582;5.276;2023-07-30T03:41:11;11.95;;;5.78;;
39016;SDS011;24784;45.582;5.276;2023-07-30T03:43:37;9.07;;;5.40;;
39016;SDS011;24784;45.582;5.276;2023-07-30T03:46:03;7.28;;;5.20;;
39016;SDS011;24784;45.582;5.276;2023-07-30T03:48:28;6.78;;;5.30;;
39016;SDS011;24784;45.582;5.276;2023-07-30T03:50:54;7.78;;;5.43;;
39016;SDS011;24784;45.582;5.276;2023-07-30T03:53:20;12.10;;;5.45;;
39016;SDS011;24784;45.582;5.276;2023-07-30T03:55:47;9.68;;;5.63;;
39016;SDS011;24784;45.582;5.276;2023-07-30T03:58:13;10.35;;;5.57;;
39016;SDS011;24784;45.582;5.276;2023-07-30T04:00:39;7.30;;;5.80;;
39016;SDS011;24784;45.582;5.276;2023-07-30T04:03:05;8.15;;;5.28;;
39016;SDS011;24784;45.582;5.276;2023-07-30T04:05:31;8.68;;;5.20;;
39016;SDS011;24784;45.582;5.276;2023-07-30T04:07:57;10.52;;;5.95;;
39016;SDS011;24784;45.582;5.276;2023-07-30T04:10:22;9.07;;;4.72;;
39016;SDS011;24784;45.582;5.276;2023-07-30T04:12:48;9.55;;;6.10;;
39016;SDS011;24784;45.582;5.276;2023-07-30T04:15:14;7.75;;;5.00;;
39016;SDS011;24784;45.582;5.276;2023-07-30T04:17:41;6.72;;;5.28;;
39016;SDS011;24784;45.582;5.276;2023-07-30T04:20:07;7.28;;;5.72;;
39016;SDS011;24784;45.582;5.276;2023-07-30T04:22:34;7.90;;;5.97;;
39016;SDS011;24784;45.582;5.276;2023-07-30T04:25:01;10.20;;;5.75;;
39016;SDS011;24784;45.582;5.276;2023-07-30T04:27:27;6.63;;;5.35;;
39016;SDS011;24784;45.582;5.276;2023-07-30T04:29:52;10.73;;;6.28;;
39016;SDS011;24784;45.582;5.276;2023-07-30T04:32:18;8.10;;;5.43;;
39016;SDS011;24784;45.582;5.276;2023-07-30T04:34:44;11.05;;;6.35;;
39016;SDS011;24784;45.582;5.276;2023-07-30T04:37:10;10.20;;;5.25;;
39016;SDS011;24784;45.582;5.276;2023-07-30T04:39:35;6.88;;;5.03;;
39016;SDS011;24784;45.582;5.276;2023-07-30T04:42:02;9.68;;;5.70;;
39016;SDS011;24784;45.582;5.276;2023-07-30T04:44:28;7.47;;;5.40;;
39016;SDS011;24784;45.582;5.276;2023-07-30T04:46:54;10.07;;;5.63;;
39016;SDS011;24784;45.582;5.276;2023-07-30T04:49:19;8.02;;;5.60;;
39016;SDS011;24784;45.582;5.276;2023-07-30T04:51:45;11.77;;;6.32;;
39016;SDS011;24784;45.582;5.276;2023-07-30T04:54:11;7.78;;;4.93;;
39016;SDS011;24784;45.582;5.276;2023-07-30T04:56:37;8.38;;;5.00;;
39016;SDS011;24784;45.582;5.276;2023-07-30T04:59:03;9.95;;;5.30;;
39016;SDS011;24784;45.582;5.276;2023-07-30T05:01:29;7.22;;;5.55;;
39016;SDS011;24784;45.582;5.276;2023-07-30T05:03:55;7.35;;;5.38;;
39016;SDS011;24784;45.582;5.276;2023-07-30T05:06:22;5.35;;;4.85;;
39016;SDS011;24784;45.582;5.276;2023-07-30T05:08:48;9.57;;;4.93;;
39016;SDS011;24784;45.582;5.276;2023-07-30T05:11:14;7.15;;;4.90;;
39016;SDS011;24784;45.582;5.276;2023-07-30T05:13:39;5.50;;;4.85;;
39016;SDS011;24784;45.582;5.276;2023-07-30T05:16:06;6.50;;;4.93;;
39016;SDS011;24784;45.582;5.276;2023-07-30T05:18:31;8.93;;;5.75;;
39016;SDS011;24784;45.582;5.276;2023-07-30T05:20:57;9.57;;;5.20;;
39016;SDS011;24784;45.582;5.276;2023-07-30T05:23:23;8.13;;;5.45;;
39016;SDS011;24784;45.582;5.276;2023-07-30T05:25:49;6.60;;;5.05;;
39016;SDS011;24784;45.582;5.276;2023-07-30T05:28:15;8.40;;;5.53;;
39016;SDS011;24784;45.582;5.276;2023-07-30T05:30:40;6.90;;;5.00;;
39016;SDS011;24784;45.582;5.276;2023-07-30T05:33:06;9.55;;;5.07;;
39016;SDS011;24784;45.582;5.276;2023-07-30T05:35:32;8.57;;;5.45;;
39016;SDS011;24784;45.582;5.276;2023-07-30T05:37:58;13.30;;;5.50;;
39016;SDS011;24784;45.582;5.276;2023-07-30T05:40:23;8.30;;;5.82;;
39016;SDS011;24784;45.582;5.276;2023-07-30T05:42:49;11.98;;;6.00;;
39016;SDS011;24784;45.582;5.276;2023-07-30T05:45:15;9.77;;;5.80;;
39016;SDS011;24784;45.582;5.276;2023-07-30T05:47:41;9.23;;;5.72;;
39016;SDS011;24784;45.582;5.276;2023-07-30T05:50:06;7.45;;;5.80;;
39016;SDS011;24784;45.582;5.276;2023-07-30T05:52:33;8.00;;;5.97;;
39016;SDS011;24784;45.582;5.276;2023-07-30T05:54:59;8.48;;;5.88;;
39016;SDS011;24784;45.582;5.276;2023-07-30T05:57:25;7.32;;;5.45;;
39016;SDS011;24784;45.582;5.276;2023-07-30T05:59:51;10.27;;;4.93;;
39016;SDS011;24784;45.582;5.276;2023-07-30T06:02:17;14.82;;;5.63;;
39016;SDS011;24784;45.582;5.276;2023-07-30T06:04:43;7.72;;;5.18;;
39016;SDS011;24784;45.582;5.276;2023-07-30T06:07:09;8.05;;;5.53;;
39016;SDS011;24784;45.582;5.276;2023-07-30T06:09:35;7.68;;;5.50;;
39016;SDS011;24784;45.582;5.276;2023-07-30T06:12:01;7.28;;;5.43;;
39016;SDS011;24784;45.582;5.276;2023-07-30T06:14:27;10.07;;;5.75;;
39016;SDS011;24784;45.582;5.276;2023-07-30T06:16:53;9.95;;;5.20;;
39016;SDS011;24784;45.582;5.276;2023-07-30T06:19:19;7.07;;;5.93;;
39016;SDS011;24784;45.582;5.276;2023-07-30T06:21:45;8.27;;;6.35;;
39016;SDS011;24784;45.582;5.276;2023-07-30T06:24:11;18.38;;;6.82;;
39016;SDS011;24784;45.582;5.276;2023-07-30T06:26:37;8.88;;;7.88;;
39016;SDS011;24784;45.582;5.276;2023-07-30T06:29:03;12.57;;;8.43;;
39016;SDS011;24784;45.582;5.276;2023-07-30T06:31:28;10.13;;;7.88;;
39016;SDS011;24784;45.582;5.276;2023-07-30T06:33:55;8.75;;;7.50;;
39016;SDS011;24784;45.582;5.276;2023-07-30T06:36:21;11.05;;;7.70;;
39016;SDS011;24784;45.582;5.276;2023-07-30T06:38:46;10.68;;;7.30;;
39016;SDS011;24784;45.582;5.276;2023-07-30T06:41:13;12.95;;;9.00;;
39016;SDS011;24784;45.582;5.276;2023-07-30T06:43:39;10.02;;;8.30;;
39016;SDS011;24784;45.582;5.276;2023-07-30T06:46:05;9.70;;;7.15;;
39016;SDS011;24784;45.582;5.276;2023-07-30T06:48:31;13.43;;;7.63;;
39016;SDS011;24784;45.582;5.276;2023-07-30T06:50:57;10.95;;;8.13;;
39016;SDS011;24784;45.582;5.276;2023-07-30T06:53:23;10.45;;;8.40;;
39016;SDS011;24784;45.582;5.276;2023-07-30T06:55:49;12.23;;;7.70;;
39016;SDS011;24784;45.582;5.276;2023-07-30T06:58:14;13.05;;;9.43;;
39016;SDS011;24784;45.582;5.276;2023-07-30T07:00:40;18.88;;;10.70;;
39016;SDS011;24784;45.582;5.276;2023-07-30T07:03:06;17.48;;;12.02;;
39016;SDS011;24784;45.582;5.276;2023-07-30T07:05:32;19.83;;;11.88;;
39016;SDS011;24784;45.582;5.276;2023-07-30T07:07:58;16.45;;;12.48;;
39016;SDS011;24784;45.582;5.276;2023-07-30T07:10:24;16.73;;;12.10;;
39016;SDS011;24784;45.582;5.276;2023-07-30T07:12:50;16.15;;;12.45;;
39016;SDS011;24784;45.582;5.276;2023-07-30T07:15:16;17.88;;;12.15;;
39016;SDS011;24784;45.582;5.276;2023-07-30T07:17:42;15.30;;;12.50;;
39016;SDS011;24784;45.582;5.276;2023-07-30T07:20:08;15.77;;;13.13;;
39016;SDS011;24784;45.582;5.276;2023-07-30T07:22:35;20.75;;;12.45;;
39016;SDS011;24784;45.582;5.276;2023-07-30T07:25:01;19.63;;;13.38;;
39016;SDS011;24784;45.582;5.276;2023-07-30T07:27:27;13.93;;;11.18;;
39016;SDS011;24784;45.582;5.276;2023-07-30T07:29:53;14.75;;;11.13;;
39016;SDS011;24784;45.582;5.276;2023-07-30T07:32:19;13.77;;;10.60;;
39016;SDS011;24784;45.582;5.276;2023-07-30T07:34:46;13.38;;;9.55;;
39016;SDS011;24784;45.582;5.276;2023-07-30T07:37:13;12.85;;;7.97;;
39016;SDS011;24784;45.582;5.276;2023-07-30T07:39:40;11.68;;;9.07;;
39016;SDS011;24784;45.582;5.276;2023-07-30T07:42:07;4.43;;;4.00;;
39016;SDS011;24784;45.582;5.276;2023-07-30T07:44:32;6.93;;;3.92;;
39016;SDS011;24784;45.582;5.276;2023-07-30T07:46:58;8.98;;;3.15;;
39016;SDS011;24784;45.582;5.276;2023-07-30T07:49:24;5.82;;;2.60;;
39016;SDS011;24784;45.582;5.276;2023-07-30T07:51:50;4.80;;;2.50;;
39016;SDS011;24784;45.582;5.276;2023-07-30T07:54:15;3.63;;;2.65;;
39016;SDS011;24784;45.582;5.276;2023-07-30T07:56:41;6.18;;;2.80;;
39016;SDS011;24784;45.582;5.276;2023-07-30T07:59:07;6.07;;;2.78;;
39016;SDS011;24784;45.582;5.276;2023-07-30T08:01:33;2.90;;;2.40;;
39016;SDS011;24784;45.582;5.276;2023-07-30T08:03:58;3.08;;;2.30;;
39016;SDS011;24784;45.582;5.276;2023-07-30T08:06:24;6.38;;;2.30;;
39016;SDS011;24784;45.582;5.276;2023-07-30T08:08:50;3.88;;;2.95;;
39016;SDS011;24784;45.582;5.276;2023-07-30T08:11:16;3.58;;;2.85;;
39016;SDS011;24784;45.582;5.276;2023-07-30T08:13:41;4.22;;;2.40;;
39016;SDS011;24784;45.582;5.276;2023-07-30T08:16:07;3.72;;;2.22;;
39016;SDS011;24784;45.582;5.276;2023-07-30T08:18:33;3.15;;;2.28;;
39016;SDS011;24784;45.582;5.276;2023-07-30T08:21:02;5.57;;;2.45;;
39016;SDS011;24784;45.582;5.276;2023-07-30T08:23:28;5.35;;;2.95;;
39016;SDS011;24784;45.582;5.276;2023-07-30T08:25:53;4.60;;;2.38;;
39016;SDS011;24784;45.582;5.276;2023-07-30T08:28:19;3.03;;;2.03;;
39016;SDS011;24784;45.582;5.276;2023-07-30T08:30:45;2.95;;;2.17;;
39016;SDS011;24784;45.582;5.276;2023-07-30T08:33:11;4.70;;;2.97;;
39016;SDS011;24784;45.582;5.276;2023-07-30T08:35:37;3.13;;;2.45;;
39016;SDS011;24784;45.582;5.276;2023-07-30T08:38:03;6.53;;;2.92;;
39016;SDS011;24784;45.582;5.276;2023-07-30T08:40:29;4.72;;;2.47;;
39016;SDS011;24784;45.582;5.276;2023-07-30T08:42:55;3.67;;;2.75;;
39016;SDS011;24784;45.582;5.276;2023-07-30T08:45:20;2.55;;;2.13;;
39016;SDS011;24784;45.582;5.276;2023-07-30T08:47:46;4.95;;;2.60;;
39016;SDS011;24784;45.582;5.276;2023-07-30T08:50:13;7.00;;;2.47;;
39016;SDS011;24784;45.582;5.276;2023-07-30T08:52:39;3.80;;;2.35;;
39016;SDS011;24784;45.582;5.276;2023-07-30T08:55:06;2.33;;;2.13;;
39016;SDS011;24784;45.582;5.276;2023-07-30T08:57:32;4.78;;;2.38;;
39016;SDS011;24784;45.582;5.276;2023-07-30T09:00:02;5.47;;;2.20;;
39016;SDS011;24784;45.582;5.276;2023-07-30T09:02:33;4.32;;;2.40;;
39016;SDS011;24784;45.582;5.276;2023-07-30T09:05:04;2.50;;;2.10;;
39016;SDS011;24784;45.582;5.276;2023-07-30T09:07:31;3.03;;;2.30;;
39016;SDS011;24784;45.582;5.276;2023-07-30T09:09:57;2.50;;;2.30;;
39016;SDS011;24784;45.582;5.276;2023-07-30T09:12:28;8.88;;;2.10;;
39016;SDS011;24784;45.582;5.276;2023-07-30T09:14:56;3.17;;;2.38;;
39016;SDS011;24784;45.582;5.276;2023-07-30T09:17:21;3.72;;;2.35;;
39016;SDS011;24784;45.582;5.276;2023-07-30T09:19:47;3.60;;;1.95;;
39016;SDS011;24784;45.582;5.276;2023-07-30T09:22:25;3.20;;;2.20;;
39016;SDS011;24784;45.582;5.276;2023-07-30T09:24:52;2.67;;;2.10;;
39016;SDS011;24784;45.582;5.276;2023-07-30T09:27:23;3.13;;;2.10;;
39016;SDS011;24784;45.582;5.276;2023-07-30T09:29:52;3.50;;;1.98;;
39016;SDS011;24784;45.582;5.276;2023-07-30T09:32:19;3.28;;;2.08;;
39016;SDS011;24784;45.582;5.276;2023-07-30T09:34:45;2.25;;;1.63;;
39016;SDS011;24784;45.582;5.276;2023-07-30T09:37:11;5.18;;;2.22;;
39016;SDS011;24784;45.582;5.276;2023-07-30T09:39:37;2.25;;;1.95;;
39016;SDS011;24784;45.582;5.276;2023-07-30T09:42:03;5.90;;;2.05;;
39016;SDS011;24784;45.582;5.276;2023-07-30T09:44:33;3.92;;;2.10;;
39016;SDS011;24784;45.582;5.276;2023-07-30T18:59:34;3.38;;;1.80;;
39016;SDS011;24784;45.582;5.276;2023-07-30T19:02:00;2.85;;;1.80;;
39016;SDS011;24784;45.582;5.276;2023-07-30T19:04:26;3.80;;;1.55;;
39016;SDS011;24784;45.582;5.276;2023-07-30T19:06:52;6.68;;;2.63;;
39016;SDS011;24784;45.582;5.276;2023-07-30T19:09:18;3.20;;;1.75;;
39016;SDS011;24784;45.582;5.276;2023-07-30T19:11:44;5.95;;;2.00;;
39016;SDS011;24784;45.582;5.276;2023-07-30T19:14:09;2.92;;;1.90;;
39016;SDS011;24784;45.582;5.276;2023-07-30T19:16:35;4.28;;;1.75;;
39016;SDS011;24784;45.582;5.276;2023-07-30T19:19:01;4.30;;;1.85;;
39016;SDS011;24784;45.582;5.276;2023-07-30T19:21:27;4.00;;;1.83;;
39016;SDS011;24784;45.582;5.276;2023-07-30T19:23:53;4.07;;;2.00;;
39016;SDS011;24784;45.582;5.276;2023-07-30T19:26:18;2.90;;;1.80;;
39016;SDS011;24784;45.582;5.276;2023-07-30T19:28:44;6.25;;;1.73;;
39016;SDS011;24784;45.582;5.276;2023-07-30T19:31:10;6.28;;;2.22;;
39016;SDS011;24784;45.582;5.276;2023-07-30T19:33:38;5.13;;;2.00;;
39016;SDS011;24784;45.582;5.276;2023-07-30T19:36:12;3.75;;;1.92;;
39016;SDS011;24784;45.582;5.276;2023-07-30T19:38:38;4.95;;;1.92;;
39016;SDS011;24784;45.582;5.276;2023-07-30T19:41:08;6.53;;;1.65;;
39016;SDS011;24784;45.582;5.276;2023-07-30T19:43:34;9.52;;;2.28;;
39016;SDS011;24784;45.582;5.276;2023-07-30T19:46:00;5.50;;;2.17;;
39016;SDS011;24784;45.582;5.276;2023-07-30T19:48:26;3.58;;;1.80;;
39016;SDS011;24784;45.582;5.276;2023-07-30T19:50:52;4.97;;;1.85;;
39016;SDS011;24784;45.582;5.276;2023-07-30T19:53:18;4.82;;;2.00;;
39016;SDS011;24784;45.582;5.276;2023-07-30T19:55:45;5.85;;;1.90;;
39016;SDS011;24784;45.582;5.276;2023-07-30T19:58:27;3.83;;;1.88;;
39016;SDS011;24784;45.582;5.276;2023-07-30T20:00:57;7.13;;;2.50;;
39016;SDS011;24784;45.582;5.276;2023-07-30T20:03:25;6.30;;;2.20;;
39016;SDS011;24784;45.582;5.276;2023-07-30T20:05:56;4.70;;;1.92;;
39016;SDS011;24784;45.582;5.276;2023-07-30T20:08:23;7.38;;;2.00;;
39016;SDS011;24784;45.582;5.276;2023-07-30T20:10:52;5.05;;;1.90;;
39016;SDS011;24784;45.582;5.276;2023-07-30T20:13:18;8.57;;;2.30;;
39016;SDS011;24784;45.582;5.276;2023-07-30T20:15:44;5.00;;;2.17;;
39016;SDS011;24784;45.582;5.276;2023-07-30T20:18:09;5.85;;;2.28;;
39016;SDS011;24784;45.582;5.276;2023-07-30T20:20:35;3.53;;;1.70;;
39016;SDS011;24784;45.582;5.276;2023-07-30T20:23:05;3.20;;;1.60;;
39016;SDS011;24784;45.582;5.276;2023-07-30T20:25:32;3.67;;;1.60;;
39016;SDS011;24784;45.582;5.276;2023-07-30T20:28:03;5.93;;;2.05;;
39016;SDS011;24784;45.582;5.276;2023-07-30T20:30:31;6.15;;;2.20;;
39016;SDS011;24784;45.582;5.276;2023-07-30T20:32:58;6.78;;;2.30;;
39016;SDS011;24784;45.582;5.276;2023-07-30T20:35:25;6.72;;;2.20;;
39016;SDS011;24784;45.582;5.276;2023-07-30T20:37:51;3.17;;;1.83;;
39016;SDS011;24784;45.582;5.276;2023-07-30T20:40:21;8.65;;;2.50;;
39016;SDS011;24784;45.582;5.276;2023-07-30T20:42:53;4.25;;;2.25;;
39016;SDS011;24784;45.582;5.276;2023-07-30T20:45:20;6.85;;;2.53;;
39016;SDS011;24784;45.582;5.276;2023-07-30T20:47:50;7.18;;;2.25;;
39016;SDS011;24784;45.582;5.276;2023-07-30T20:50:17;5.53;;;2.15;;
39016;SDS011;24784;45.582;5.276;2023-07-30T20:52:47;6.43;;;2.17;;
39016;SDS011;24784;45.582;5.276;2023-07-30T20:55:14;5.07;;;2.17;;
39016;SDS011;24784;45.582;5.276;2023-07-30T20:57:41;7.13;;;1.88;;
39016;SDS011;24784;45.582;5.276;2023-07-30T21:00:08;6.30;;;2.03;;
39016;SDS011;24784;45.582;5.276;2023-07-30T21:02:34;7.43;;;2.35;;
39016;SDS011;24784;45.582;5.276;2023-07-30T21:05:01;6.50;;;2.20;;
39016;SDS011;24784;45.582;5.276;2023-07-30T21:07:27;4.32;;;2.10;;
39016;SDS011;24784;45.582;5.276;2023-07-30T21:09:52;5.57;;;1.77;;
39016;SDS011;24784;45.582;5.276;2023-07-30T21:12:19;9.55;;;2.20;;
39016;SDS011;24784;45.582;5.276;2023-07-30T21:14:46;3.63;;;2.08;;
39016;SDS011;24784;45.582;5.276;2023-07-30T21:17:14;8.98;;;2.05;;
39016;SDS011;24784;45.582;5.276;2023-07-30T21:19:40;2.40;;;1.90;;
39016;SDS011;24784;45.582;5.276;2023-07-30T21:22:06;4.57;;;1.98;;
39016;SDS011;24784;45.582;5.276;2023-07-30T21:24:31;5.43;;;1.95;;
39016;SDS011;24784;45.582;5.276;2023-07-30T21:26:57;7.30;;;2.05;;
39016;SDS011;24784;45.582;5.276;2023-07-30T21:29:23;4.20;;;1.95;;
39016;SDS011;24784;45.582;5.276;2023-07-30T21:31:48;8.35;;;2.20;;
39016;SDS011;24784;45.582;5.276;2023-07-30T21:34:14;4.03;;;2.15;;
39016;SDS011;24784;45.582;5.276;2023-07-30T21:36:40;6.80;;;2.05;;
39016;SDS011;24784;45.582;5.276;2023-07-30T21:39:06;8.00;;;2.05;;
39016;SDS011;24784;45.582;5.276;2023-07-30T21:41:31;12.77;;;2.38;;
39016;SDS011;24784;45.582;5.276;2023-07-30T21:43:57;7.88;;;2.35;;
39016;SDS011;24784;45.582;5.276;2023-07-30T21:46:23;5.30;;;2.20;;
39016;SDS011;24784;45.582;5.276;2023-07-30T21:48:49;6.25;;;1.92;;
39016;SDS011;24784;45.582;5.276;2023-07-30T21:51:14;6.40;;;2.30;;
39016;SDS011;24784;45.582;5.276;2023-07-30T21:53:40;6.10;;;2.47;;
39016;SDS011;24784;45.582;5.276;2023-07-30T21:56:07;3.90;;;2.15;;
39016;SDS011;24784;45.582;5.276;2023-07-30T21:58:34;8.40;;;2.50;;
39016;SDS011;24784;45.582;5.276;2023-07-30T22:01:00;4.47;;;1.98;;
39016;SDS011;24784;45.582;5.276;2023-07-30T22:03:26;6.13;;;2.30;;
39016;SDS011;24784;45.582;5.276;2023-07-30T22:05:53;6.53;;;2.28;;
39016;SDS011;24784;45.582;5.276;2023-07-30T22:08:19;5.22;;;2.38;;
39016;SDS011;24784;45.582;5.276;2023-07-30T22:10:46;5.25;;;1.92;;
39016;SDS011;24784;45.582;5.276;2023-07-30T22:13:13;6.35;;;1.98;;
39016;SDS011;24784;45.582;5.276;2023-07-30T22:15:42;5.63;;;2.00;;
39016;SDS011;24784;45.582;5.276;2023-07-30T22:18:08;3.83;;;2.00;;
39016;SDS011;24784;45.582;5.276;2023-07-30T22:20:34;4.55;;;2.17;;
39016;SDS011;24784;45.582;5.276;2023-07-30T22:23:00;9.32;;;3.00;;
39016;SDS011;24784;45.582;5.276;2023-07-30T22:25:26;7.03;;;2.05;;
39016;SDS011;24784;45.582;5.276;2023-07-30T22:27:52;4.13;;;2.03;;
39016;SDS011;24784;45.582;5.276;2023-07-30T22:30:21;6.88;;;2.33;;
39016;SDS011;24784;45.582;5.276;2023-07-30T22:32:50;5.65;;;2.30;;
39016;SDS011;24784;45.582;5.276;2023-07-30T22:35:16;7.28;;;2.00;;
39016;SDS011;24784;45.582;5.276;2023-07-30T22:37:42;5.68;;;2.10;;
39016;SDS011;24784;45.582;5.276;2023-07-30T22:40:08;7.05;;;2.17;;
39016;SDS011;24784;45.582;5.276;2023-07-30T22:42:34;6.28;;;2.03;;
39016;SDS011;24784;45.582;5.276;2023-07-30T22:45:01;3.92;;;1.92;;
39016;SDS011;24784;45.582;5.276;2023-07-30T22:47:28;8.13;;;2.10;;
39016;SDS011;24784;45.582;5.276;2023-07-30T22:49:53;7.43;;;2.50;;
39016;SDS011;24784;45.582;5.276;2023-07-30T22:52:19;4.93;;;2.72;;
39016;SDS011;24784;45.582;5.276;2023-07-30T22:54:45;3.90;;;2.05;;
39016;SDS011;24784;45.582;5.276;2023-07-30T22:57:11;3.95;;;2.15;;
39016;SDS011;24784;45.582;5.276;2023-07-30T22:59:37;5.85;;;2.30;;
39016;SDS011;24784;45.582;5.276;2023-07-30T23:02:02;7.68;;;2.53;;
39016;SDS011;24784;45.582;5.276;2023-07-30T23:04:28;6.60;;;2.22;;
39016;SDS011;24784;45.582;5.276;2023-07-30T23:06:54;7.10;;;2.90;;
39016;SDS011;24784;45.582;5.276;2023-07-30T23:09:20;9.30;;;2.28;;
39016;SDS011;24784;45.582;5.276;2023-07-30T23:11:47;5.07;;;2.10;;
39016;SDS011;24784;45.582;5.276;2023-07-30T23:14:13;8.02;;;2.50;;
39016;SDS011;24784;45.582;5.276;2023-07-30T23:16:40;4.57;;;1.80;;
39016;SDS011;24784;45.582;5.276;2023-07-30T23:19:06;4.55;;;2.28;;
39016;SDS011;24784;45.582;5.276;2023-07-30T23:21:32;5.07;;;1.80;;
39016;SDS011;24784;45.582;5.276;2023-07-30T23:23:58;8.07;;;2.70;;
39016;SDS011;24784;45.582;5.276;2023-07-30T23:26:24;9.55;;;4.03;;
39016;SDS011;24784;45.582;5.276;2023-07-30T23:28:50;4.03;;;2.45;;
39016;SDS011;24784;45.582;5.276;2023-07-30T23:31:16;8.23;;;2.20;;
39016;SDS011;24784;45.582;5.276;2023-07-30T23:33:42;5.05;;;1.95;;
39016;SDS011;24784;45.582;5.276;2023-07-30T23:36:08;4.85;;;2.47;;
39016;SDS011;24784;45.582;5.276;2023-07-30T23:38:34;3.53;;;1.85;;
39016;SDS011;24784;45.582;5.276;2023-07-30T23:41:00;6.63;;;2.25;;
39016;SDS011;24784;45.582;5.276;2023-07-30T23:43:26;5.53;;;2.25;;
39016;SDS011;24784;45.582;5.276;2023-07-30T23:45:52;9.02;;;2.35;;
39016;SDS011;24784;45.582;5.276;2023-07-30T23:48:17;4.05;;;1.92;;
39016;SDS011;24784;45.582;5.276;2023-07-30T23:50:43;4.00;;;2.33;;
39016;SDS011;24784;45.582;5.276;2023-07-30T23:53:09;5.15;;;2.10;;